sensor_id;sensor_type;location;lat;lon;timestamp;temperature;humidity
22177;DHT22;11254;50.098;8.726;2022-09-12T00:01:03;14.00;99.90
22177;DHT22;11254;50.098;8.726;2022-09-12T00:03:31;13.90;99.90
22177;DHT22;11254;50.098;8.726;2022-09-12T00:05:59;13.90;99.90
22177;DHT22;11254;50.098;8.726;2022-09-12T00:08:27;13.80;99.90
22177;DHT22;11254;50.098;8.726;2022-09-12T00:10:55;13.80;99.90
22177;DHT22;11254;50.098;8.726;2022-09-12T00:13:24;13.80;99.90
22177;DHT22;11254;50.098;8.726;2022-09-12T00:15:52;13.80;99.90
22177;DHT22;11254;50.098;8.726;2022-09-12T00:18:20;13.80;99.90
22177;DHT22;11254;50.098;8.726;2022-09-12T00:20:48;13.80;99.90
22177;DHT22;11254;50.098;8.726;2022-09-12T00:23:16;13.80;99.90
22177;DHT22;11254;50.098;8.726;2022-09-12T00:25:46;13.70;99.90
22177;DHT22;11254;50.098;8.726;2022-09-12T00:28:15;13.60;99.90
22177;DHT22;11254;50.098;8.726;2022-09-12T00:30:47;13.60;99.90
22177;DHT22;11254;50.098;8.726;2022-09-12T00:33:16;13.60;99.90
22177;DHT22;11254;50.098;8.726;2022-09-12T00:35:46;13.50;99.90
22177;DHT22;11254;50.098;8.726;2022-09-12T00:38:15;13.50;99.90
22177;DHT22;11254;50.098;8.726;2022-09-12T00:40:43;13.50;99.90
22177;DHT22;11254;50.098;8.726;2022-09-12T00:43:13;13.50;99.90
22177;DHT22;11254;50.098;8.726;2022-09-12T00:45:41;13.40;99.90
22177;DHT22;11254;50.098;8.726;2022-09-12T00:48:19;13.40;99.90
22177;DHT22;11254;50.098;8.726;2022-09-12T00:50:49;13.40;99.90
22177;DHT22;11254;50.098;8.726;2022-09-12T00:53:17;13.40;99.90
22177;DHT22;11254;50.098;8.726;2022-09-12T00:55:48;13.40;99.90
22177;DHT22;11254;50.098;8.726;2022-09-12T00:58:19;13.40;99.90
22177;DHT22;11254;50.098;8.726;2022-09-12T01:00:49;13.30;99.90
22177;DHT22;11254;50.098;8.726;2022-09-12T01:03:20;13.30;99.90
22177;DHT22;11254;50.098;8.726;2022-09-12T01:05:54;13.30;99.90
22177;DHT22;11254;50.098;8.726;2022-09-12T01:08:27;13.20;99.90
22177;DHT22;11254;50.098;8.726;2022-09-12T01:10:56;13.20;99.90
22177;DHT22;11254;50.098;8.726;2022-09-12T01:13:24;13.20;99.90
22177;DHT22;11254;50.098;8.726;2022-09-12T01:15:52;13.20;99.90
22177;DHT22;11254;50.098;8.726;2022-09-12T01:18:29;13.10;99.90
22177;DHT22;11254;50.098;8.726;2022-09-12T01:21:03;13.10;99.90
22177;DHT22;11254;50.098;8.726;2022-09-12T01:30:17;13.10;99.90
22177;DHT22;11254;50.098;8.726;2022-09-12T01:33:02;13.10;99.90
22177;DHT22;11254;50.098;8.726;2022-09-12T01:35:35;13.10;99.90
22177;DHT22;11254;50.098;8.726;2022-09-12T01:38:09;13.20;99.90
22177;DHT22;11254;50.098;8.726;2022-09-12T01:40:43;13.20;99.90
22177;DHT22;11254;50.098;8.726;2022-09-12T01:43:18;13.20;99.90
22177;DHT22;11254;50.098;8.726;2022-09-12T01:45:56;13.20;99.90
22177;DHT22;11254;50.098;8.726;2022-09-12T01:48:27;13.20;99.90
22177;DHT22;11254;50.098;8.726;2022-09-12T01:51:02;13.20;99.90
22177;DHT22;11254;50.098;8.726;2022-09-12T01:53:35;13.10;99.90
22177;DHT22;11254;50.098;8.726;2022-09-12T01:56:08;13.10;99.90
22177;DHT22;11254;50.098;8.726;2022-09-12T01:58:41;13.10;99.90
22177;DHT22;11254;50.098;8.726;2022-09-12T02:01:14;13.10;99.90
22177;DHT22;11254;50.098;8.726;2022-09-12T02:03:47;13.10;99.90
22177;DHT22;11254;50.098;8.726;2022-09-12T02:06:19;13.10;99.90
22177;DHT22;11254;50.098;8.726;2022-09-12T02:08:52;13.10;99.90
22177;DHT22;11254;50.098;8.726;2022-09-12T02:11:21;13.10;99.90
22177;DHT22;11254;50.098;8.726;2022-09-12T02:13:53;13.10;99.90
22177;DHT22;11254;50.098;8.726;2022-09-12T02:16:29;13.10;99.90
22177;DHT22;11254;50.098;8.726;2022-09-12T02:19:02;13.10;99.90
22177;DHT22;11254;50.098;8.726;2022-09-12T02:21:34;13.10;99.90
22177;DHT22;11254;50.098;8.726;2022-09-12T02:24:07;13.00;99.90
22177;DHT22;11254;50.098;8.726;2022-09-12T02:26:42;13.00;99.90
22177;DHT22;11254;50.098;8.726;2022-09-12T02:29:11;13.00;99.90
22177;DHT22;11254;50.098;8.726;2022-09-12T02:31:44;13.00;99.90
22177;DHT22;11254;50.098;8.726;2022-09-12T02:34:25;13.00;99.90
22177;DHT22;11254;50.098;8.726;2022-09-12T02:37:04;13.00;99.90
22177;DHT22;11254;50.098;8.726;2022-09-12T02:39:34;13.00;99.90
22177;DHT22;11254;50.098;8.726;2022-09-12T02:42:02;12.90;99.90
22177;DHT22;11254;50.098;8.726;2022-09-12T02:44:31;12.90;99.90
22177;DHT22;11254;50.098;8.726;2022-09-12T02:47:03;12.90;99.90
22177;DHT22;11254;50.098;8.726;2022-09-12T02:49:32;12.80;99.90
22177;DHT22;11254;50.098;8.726;2022-09-12T02:52:01;12.80;99.90
22177;DHT22;11254;50.098;8.726;2022-09-12T02:54:30;12.80;99.90
22177;DHT22;11254;50.098;8.726;2022-09-12T02:56:58;12.90;99.90
22177;DHT22;11254;50.098;8.726;2022-09-12T02:59:26;12.90;99.90
22177;DHT22;11254;50.098;8.726;2022-09-12T03:02:09;12.90;99.90
22177;DHT22;11254;50.098;8.726;2022-09-12T03:04:52;12.90;99.90
22177;DHT22;11254;50.098;8.726;2022-09-12T03:07:33;12.80;99.90
22177;DHT22;11254;50.098;8.726;2022-09-12T03:10:09;12.80;99.90
22177;DHT22;11254;50.098;8.726;2022-09-12T03:12:46;12.80;99.90
22177;DHT22;11254;50.098;8.726;2022-09-12T03:15:26;12.70;99.90
22177;DHT22;11254;50.098;8.726;2022-09-12T03:18:06;12.80;99.90
22177;DHT22;11254;50.098;8.726;2022-09-12T03:20:44;12.80;99.90
22177;DHT22;11254;50.098;8.726;2022-09-12T03:23:23;12.80;99.90
22177;DHT22;11254;50.098;8.726;2022-09-12T03:25:54;12.80;99.90
22177;DHT22;11254;50.098;8.726;2022-09-12T03:28:24;12.80;99.90
22177;DHT22;11254;50.098;8.726;2022-09-12T03:30:53;12.80;99.90
22177;DHT22;11254;50.098;8.726;2022-09-12T03:33:24;12.80;99.90
22177;DHT22;11254;50.098;8.726;2022-09-12T03:35:54;12.80;99.90
22177;DHT22;11254;50.098;8.726;2022-09-12T03:38:22;12.70;99.90
22177;DHT22;11254;50.098;8.726;2022-09-12T03:40:50;12.70;99.90
22177;DHT22;11254;50.098;8.726;2022-09-12T03:43:20;12.60;99.90
22177;DHT22;11254;50.098;8.726;2022-09-12T03:45:50;12.60;99.90
22177;DHT22;11254;50.098;8.726;2022-09-12T03:48:19;12.50;99.90
22177;DHT22;11254;50.098;8.726;2022-09-12T03:50:48;12.60;99.90
22177;DHT22;11254;50.098;8.726;2022-09-12T03:53:16;12.50;99.90
22177;DHT22;11254;50.098;8.726;2022-09-12T03:55:44;12.50;99.90
22177;DHT22;11254;50.098;8.726;2022-09-12T03:58:12;12.50;99.90
22177;DHT22;11254;50.098;8.726;2022-09-12T04:00:40;12.50;99.90
22177;DHT22;11254;50.098;8.726;2022-09-12T04:03:08;12.50;99.90
22177;DHT22;11254;50.098;8.726;2022-09-12T04:05:36;12.60;99.90
22177;DHT22;11254;50.098;8.726;2022-09-12T04:08:06;12.50;99.90
22177;DHT22;11254;50.098;8.726;2022-09-12T04:10:34;12.60;99.90
22177;DHT22;11254;50.098;8.726;2022-09-12T04:13:01;12.50;99.90
22177;DHT22;11254;50.098;8.726;2022-09-12T04:15:29;12.50;99.90
22177;DHT22;11254;50.098;8.726;2022-09-12T04:17:58;12.50;99.90
22177;DHT22;11254;50.098;8.726;2022-09-12T04:20:31;12.50;99.90
22177;DHT22;11254;50.098;8.726;2022-09-12T04:22:59;12.40;99.90
22177;DHT22;11254;50.098;8.726;2022-09-12T04:25:28;12.40;99.90
22177;DHT22;11254;50.098;8.726;2022-09-12T04:27:57;12.40;99.90
22177;DHT22;11254;50.098;8.726;2022-09-12T04:30:25;12.40;99.90
22177;DHT22;11254;50.098;8.726;2022-09-12T04:32:52;12.30;99.90
22177;DHT22;11254;50.098;8.726;2022-09-12T04:35:21;12.30;99.90
22177;DHT22;11254;50.098;8.726;2022-09-12T04:37:48;12.30;99.90
22177;DHT22;11254;50.098;8.726;2022-09-12T04:40:16;12.20;99.90
22177;DHT22;11254;50.098;8.726;2022-09-12T04:42:46;12.20;99.90
22177;DHT22;11254;50.098;8.726;2022-09-12T04:45:14;12.20;99.90
22177;DHT22;11254;50.098;8.726;2022-09-12T04:47:42;12.20;99.90
22177;DHT22;11254;50.098;8.726;2022-09-12T04:50:12;12.20;99.90
22177;DHT22;11254;50.098;8.726;2022-09-12T04:52:40;12.20;99.90
22177;DHT22;11254;50.098;8.726;2022-09-12T04:55:09;12.20;99.90
22177;DHT22;11254;50.098;8.726;2022-09-12T04:57:37;12.20;99.90
22177;DHT22;11254;50.098;8.726;2022-09-12T05:00:07;12.20;99.90
22177;DHT22;11254;50.098;8.726;2022-09-12T05:02:39;12.20;99.90
22177;DHT22;11254;50.098;8.726;2022-09-12T05:05:07;12.20;99.90
22177;DHT22;11254;50.098;8.726;2022-09-12T05:07:35;12.20;99.90
22177;DHT22;11254;50.098;8.726;2022-09-12T05:10:04;12.20;99.90
22177;DHT22;11254;50.098;8.726;2022-09-12T05:12:32;12.20;99.90
22177;DHT22;11254;50.098;8.726;2022-09-12T05:15:00;12.20;99.90
22177;DHT22;11254;50.098;8.726;2022-09-12T05:17:30;12.20;99.90
22177;DHT22;11254;50.098;8.726;2022-09-12T05:19:57;12.20;99.90
22177;DHT22;11254;50.098;8.726;2022-09-12T05:22:26;12.20;99.90
22177;DHT22;11254;50.098;8.726;2022-09-12T05:24:54;12.30;99.90
22177;DHT22;11254;50.098;8.726;2022-09-12T05:27:22;12.40;99.90
22177;DHT22;11254;50.098;8.726;2022-09-12T05:29:50;12.50;99.90
22177;DHT22;11254;50.098;8.726;2022-09-12T05:32:18;12.50;99.90
22177;DHT22;11254;50.098;8.726;2022-09-12T05:34:47;12.50;99.90
22177;DHT22;11254;50.098;8.726;2022-09-12T05:37:16;12.60;99.90
22177;DHT22;11254;50.098;8.726;2022-09-12T05:39:44;12.60;99.90
22177;DHT22;11254;50.098;8.726;2022-09-12T05:42:12;12.70;99.90
22177;DHT22;11254;50.098;8.726;2022-09-12T05:44:40;12.80;99.90
22177;DHT22;11254;50.098;8.726;2022-09-12T05:47:10;12.80;99.90
22177;DHT22;11254;50.098;8.726;2022-09-12T05:49:38;12.90;99.90
22177;DHT22;11254;50.098;8.726;2022-09-12T05:52:08;13.00;99.90
22177;DHT22;11254;50.098;8.726;2022-09-12T05:54:36;13.10;99.90
22177;DHT22;11254;50.098;8.726;2022-09-12T05:57:04;13.10;99.90
22177;DHT22;11254;50.098;8.726;2022-09-12T05:59:32;13.20;99.90
22177;DHT22;11254;50.098;8.726;2022-09-12T06:02:00;13.30;99.90
22177;DHT22;11254;50.098;8.726;2022-09-12T06:04:29;13.40;99.90
22177;DHT22;11254;50.098;8.726;2022-09-12T06:06:57;13.50;99.90
22177;DHT22;11254;50.098;8.726;2022-09-12T06:09:27;13.50;99.90
22177;DHT22;11254;50.098;8.726;2022-09-12T06:11:55;13.50;99.90
22177;DHT22;11254;50.098;8.726;2022-09-12T06:14:22;13.60;99.90
22177;DHT22;11254;50.098;8.726;2022-09-12T06:16:51;13.70;99.90
22177;DHT22;11254;50.098;8.726;2022-09-12T06:19:20;13.70;99.90
22177;DHT22;11254;50.098;8.726;2022-09-12T06:21:49;13.80;99.90
22177;DHT22;11254;50.098;8.726;2022-09-12T06:24:19;13.90;99.90
22177;DHT22;11254;50.098;8.726;2022-09-12T06:26:48;14.00;99.90
22177;DHT22;11254;50.098;8.726;2022-09-12T06:29:18;13.90;99.90
22177;DHT22;11254;50.098;8.726;2022-09-12T06:31:46;13.90;99.90
22177;DHT22;11254;50.098;8.726;2022-09-12T06:34:15;13.90;99.90
22177;DHT22;11254;50.098;8.726;2022-09-12T06:36:44;14.00;99.90
22177;DHT22;11254;50.098;8.726;2022-09-12T06:39:15;14.00;99.90
22177;DHT22;11254;50.098;8.726;2022-09-12T06:41:43;14.10;99.90
22177;DHT22;11254;50.098;8.726;2022-09-12T06:44:14;14.10;99.90
22177;DHT22;11254;50.098;8.726;2022-09-12T06:46:43;14.20;99.90
22177;DHT22;11254;50.098;8.726;2022-09-12T06:49:12;14.20;99.90
22177;DHT22;11254;50.098;8.726;2022-09-12T06:51:40;14.40;99.90
22177;DHT22;11254;50.098;8.726;2022-09-12T06:54:11;14.40;99.90
22177;DHT22;11254;50.098;8.726;2022-09-12T06:56:39;14.50;99.90
22177;DHT22;11254;50.098;8.726;2022-09-12T06:59:07;14.60;99.90
22177;DHT22;11254;50.098;8.726;2022-09-12T07:01:37;14.70;99.90
22177;DHT22;11254;50.098;8.726;2022-09-12T07:04:06;14.80;99.90
22177;DHT22;11254;50.098;8.726;2022-09-12T07:06:35;14.90;99.90
22177;DHT22;11254;50.098;8.726;2022-09-12T07:09:06;14.90;99.90
22177;DHT22;11254;50.098;8.726;2022-09-12T07:11:36;15.00;99.90
22177;DHT22;11254;50.098;8.726;2022-09-12T07:14:05;15.20;99.90
22177;DHT22;11254;50.098;8.726;2022-09-12T07:16:34;15.20;99.90
22177;DHT22;11254;50.098;8.726;2022-09-12T07:19:05;15.30;99.90
22177;DHT22;11254;50.098;8.726;2022-09-12T07:21:34;15.40;99.90
22177;DHT22;11254;50.098;8.726;2022-09-12T07:24:06;15.40;99.90
22177;DHT22;11254;50.098;8.726;2022-09-12T07:26:35;15.50;99.90
22177;DHT22;11254;50.098;8.726;2022-09-12T07:29:03;15.60;99.90
22177;DHT22;11254;50.098;8.726;2022-09-12T07:31:51;15.70;99.90
22177;DHT22;11254;50.098;8.726;2022-09-12T07:34:21;15.90;99.90
22177;DHT22;11254;50.098;8.726;2022-09-12T07:36:49;16.00;99.90
22177;DHT22;11254;50.098;8.726;2022-09-12T07:39:17;16.30;99.90
22177;DHT22;11254;50.098;8.726;2022-09-12T07:41:45;17.30;99.90
22177;DHT22;11254;50.098;8.726;2022-09-12T07:44:13;19.60;99.90
22177;DHT22;11254;50.098;8.726;2022-09-12T07:46:41;21.80;99.90
22177;DHT22;11254;50.098;8.726;2022-09-12T07:49:11;23.50;97.50
22177;DHT22;11254;50.098;8.726;2022-09-12T07:51:40;24.70;91.80
22177;DHT22;11254;50.098;8.726;2022-09-12T07:54:10;25.70;86.20
22177;DHT22;11254;50.098;8.726;2022-09-12T07:56:38;26.50;80.20
22177;DHT22;11254;50.098;8.726;2022-09-12T07:59:07;27.70;73.80
22177;DHT22;11254;50.098;8.726;2022-09-12T08:01:35;28.80;68.30
22177;DHT22;11254;50.098;8.726;2022-09-12T08:04:03;29.10;65.20
22177;DHT22;11254;50.098;8.726;2022-09-12T08:06:33;29.00;64.00
22177;DHT22;11254;50.098;8.726;2022-09-12T08:09:03;29.00;61.90
22177;DHT22;11254;50.098;8.726;2022-09-12T08:11:32;29.60;60.80
22177;DHT22;11254;50.098;8.726;2022-09-12T08:14:00;29.80;59.80
22177;DHT22;11254;50.098;8.726;2022-09-12T08:16:29;29.60;59.70
22177;DHT22;11254;50.098;8.726;2022-09-12T08:18:59;30.20;58.30
22177;DHT22;11254;50.098;8.726;2022-09-12T08:21:29;30.40;58.00
22177;DHT22;11254;50.098;8.726;2022-09-12T08:23:59;30.00;57.20
22177;DHT22;11254;50.098;8.726;2022-09-12T08:26:29;30.20;57.30
22177;DHT22;11254;50.098;8.726;2022-09-12T08:28:58;30.50;56.20
22177;DHT22;11254;50.098;8.726;2022-09-12T08:31:27;30.70;54.90
22177;DHT22;11254;50.098;8.726;2022-09-12T08:33:56;29.70;58.80
22177;DHT22;11254;50.098;8.726;2022-09-12T08:36:26;29.80;57.00
22177;DHT22;11254;50.098;8.726;2022-09-12T08:38:56;29.30;58.50
22177;DHT22;11254;50.098;8.726;2022-09-12T08:41:30;28.70;59.90
22177;DHT22;11254;50.098;8.726;2022-09-12T08:47:10;29.30;58.90
22177;DHT22;11254;50.098;8.726;2022-09-12T08:49:56;29.10;58.40
22177;DHT22;11254;50.098;8.726;2022-09-12T08:52:31;29.20;59.30
22177;DHT22;11254;50.098;8.726;2022-09-12T08:55:01;28.90;59.30
22177;DHT22;11254;50.098;8.726;2022-09-12T08:57:31;28.30;61.00
22177;DHT22;11254;50.098;8.726;2022-09-12T09:00:02;28.40;62.10
22177;DHT22;11254;50.098;8.726;2022-09-12T09:02:44;28.70;60.80
22177;DHT22;11254;50.098;8.726;2022-09-12T09:05:20;28.90;60.90
22177;DHT22;11254;50.098;8.726;2022-09-12T09:08:06;28.80;60.60
22177;DHT22;11254;50.098;8.726;2022-09-12T09:10:46;29.10;61.70
22177;DHT22;11254;50.098;8.726;2022-09-12T09:13:28;29.70;59.50
22177;DHT22;11254;50.098;8.726;2022-09-12T09:16:23;30.00;58.00
22177;DHT22;11254;50.098;8.726;2022-09-12T09:18:53;29.70;57.80
22177;DHT22;11254;50.098;8.726;2022-09-12T09:21:26;29.10;59.20
22177;DHT22;11254;50.098;8.726;2022-09-12T09:24:00;29.10;58.50
22177;DHT22;11254;50.098;8.726;2022-09-12T09:26:39;29.30;59.20
22177;DHT22;11254;50.098;8.726;2022-09-12T09:29:15;29.40;58.00
22177;DHT22;11254;50.098;8.726;2022-09-12T09:31:47;29.70;59.30
22177;DHT22;11254;50.098;8.726;2022-09-12T09:34:18;29.90;57.90
22177;DHT22;11254;50.098;8.726;2022-09-12T09:36:49;29.90;57.00
22177;DHT22;11254;50.098;8.726;2022-09-12T09:39:39;30.20;56.00
22177;DHT22;11254;50.098;8.726;2022-09-12T09:42:15;29.90;57.00
22177;DHT22;11254;50.098;8.726;2022-09-12T09:44:46;29.50;57.80
22177;DHT22;11254;50.098;8.726;2022-09-12T09:47:17;29.40;57.80
22177;DHT22;11254;50.098;8.726;2022-09-12T09:49:45;29.00;57.70
22177;DHT22;11254;50.098;8.726;2022-09-12T09:52:16;28.60;59.30
22177;DHT22;11254;50.098;8.726;2022-09-12T09:54:48;28.50;59.20
22177;DHT22;11254;50.098;8.726;2022-09-12T09:57:42;28.30;60.80
22177;DHT22;11254;50.098;8.726;2022-09-12T10:00:23;28.40;61.50
22177;DHT22;11254;50.098;8.726;2022-09-12T10:05:47;28.20;59.80
22177;DHT22;11254;50.098;8.726;2022-09-12T10:08:19;27.60;61.60
22177;DHT22;11254;50.098;8.726;2022-09-12T10:10:52;27.40;65.00
22177;DHT22;11254;50.098;8.726;2022-09-12T10:13:24;27.30;63.30
22177;DHT22;11254;50.098;8.726;2022-09-12T10:16:00;27.30;64.20
22177;DHT22;11254;50.098;8.726;2022-09-12T10:18:34;27.50;62.50
22177;DHT22;11254;50.098;8.726;2022-09-12T10:21:12;27.40;62.60
22177;DHT22;11254;50.098;8.726;2022-09-12T10:23:42;27.10;64.80
22177;DHT22;11254;50.098;8.726;2022-09-12T10:26:12;27.50;62.90
22177;DHT22;11254;50.098;8.726;2022-09-12T10:28:44;27.60;61.30
22177;DHT22;11254;50.098;8.726;2022-09-12T10:31:15;27.40;59.70
22177;DHT22;11254;50.098;8.726;2022-09-12T10:33:57;27.20;60.70
22177;DHT22;11254;50.098;8.726;2022-09-12T10:36:36;26.50;61.80
22177;DHT22;11254;50.098;8.726;2022-09-12T10:39:05;26.30;63.60
22177;DHT22;11254;50.098;8.726;2022-09-12T10:41:36;26.20;63.40
22177;DHT22;11254;50.098;8.726;2022-09-12T10:44:05;25.70;65.30
22177;DHT22;11254;50.098;8.726;2022-09-12T10:46:36;25.40;67.10
22177;DHT22;11254;50.098;8.726;2022-09-12T10:49:20;25.20;68.90
22177;DHT22;11254;50.098;8.726;2022-09-12T10:51:50;25.40;66.50
22177;DHT22;11254;50.098;8.726;2022-09-12T10:54:21;25.30;66.00
22177;DHT22;11254;50.098;8.726;2022-09-12T10:57:18;25.20;67.50
22177;DHT22;11254;50.098;8.726;2022-09-12T11:00:02;25.20;69.40
22177;DHT22;11254;50.098;8.726;2022-09-12T11:02:45;25.40;69.60
22177;DHT22;11254;50.098;8.726;2022-09-12T11:05:27;25.60;66.80
22177;DHT22;11254;50.098;8.726;2022-09-12T11:08:18;25.10;67.00
22177;DHT22;11254;50.098;8.726;2022-09-12T11:10:53;25.40;64.40
22177;DHT22;11254;50.098;8.726;2022-09-12T11:13:41;25.20;65.00
22177;DHT22;11254;50.098;8.726;2022-09-12T11:16:18;25.10;67.60
22177;DHT22;11254;50.098;8.726;2022-09-12T11:19:09;25.20;65.20
22177;DHT22;11254;50.098;8.726;2022-09-12T11:22:03;25.30;66.20
22177;DHT22;11254;50.098;8.726;2022-09-12T11:24:48;25.60;64.90
22177;DHT22;11254;50.098;8.726;2022-09-12T11:27:32;25.80;63.90
22177;DHT22;11254;50.098;8.726;2022-09-12T11:30:09;25.90;63.60
22177;DHT22;11254;50.098;8.726;2022-09-12T11:32:56;25.90;64.50
22177;DHT22;11254;50.098;8.726;2022-09-12T11:35:29;25.40;64.60
22177;DHT22;11254;50.098;8.726;2022-09-12T11:38:18;25.50;63.20
22177;DHT22;11254;50.098;8.726;2022-09-12T11:40:51;25.40;64.10
22177;DHT22;11254;50.098;8.726;2022-09-12T11:43:27;25.40;65.50
22177;DHT22;11254;50.098;8.726;2022-09-12T11:46:00;25.30;67.70
22177;DHT22;11254;50.098;8.726;2022-09-12T11:48:37;25.30;67.10
22177;DHT22;11254;50.098;8.726;2022-09-12T11:51:16;25.10;67.60
22177;DHT22;11254;50.098;8.726;2022-09-12T11:53:52;24.80;66.20
22177;DHT22;11254;50.098;8.726;2022-09-12T11:56:22;24.70;68.40
22177;DHT22;11254;50.098;8.726;2022-09-12T11:58:55;24.80;66.60
22177;DHT22;11254;50.098;8.726;2022-09-12T12:01:29;24.80;67.50
22177;DHT22;11254;50.098;8.726;2022-09-12T12:04:09;24.90;67.50
22177;DHT22;11254;50.098;8.726;2022-09-12T12:06:46;25.00;65.80
22177;DHT22;11254;50.098;8.726;2022-09-12T12:09:15;25.10;64.50
22177;DHT22;11254;50.098;8.726;2022-09-12T12:11:47;25.00;63.40
22177;DHT22;11254;50.098;8.726;2022-09-12T12:14:21;24.90;63.90
22177;DHT22;11254;50.098;8.726;2022-09-12T12:16:50;24.90;64.50
22177;DHT22;11254;50.098;8.726;2022-09-12T12:19:32;25.20;62.00
22177;DHT22;11254;50.098;8.726;2022-09-12T12:22:14;25.30;62.70
22177;DHT22;11254;50.098;8.726;2022-09-12T12:25:02;25.40;63.40
22177;DHT22;11254;50.098;8.726;2022-09-12T12:27:50;25.50;60.80
22177;DHT22;11254;50.098;8.726;2022-09-12T12:36:39;25.70;61.90
22177;DHT22;11254;50.098;8.726;2022-09-12T12:48:57;25.00;59.10
22177;DHT22;11254;50.098;8.726;2022-09-12T12:54:32;25.20;62.80
22177;DHT22;11254;50.098;8.726;2022-09-12T12:57:03;25.40;62.60
22177;DHT22;11254;50.098;8.726;2022-09-12T12:59:32;25.50;59.70
22177;DHT22;11254;50.098;8.726;2022-09-12T13:02:00;25.50;59.30
22177;DHT22;11254;50.098;8.726;2022-09-12T13:04:30;25.50;59.40
22177;DHT22;11254;50.098;8.726;2022-09-12T13:07:02;25.50;59.80
22177;DHT22;11254;50.098;8.726;2022-09-12T13:09:38;25.40;59.30
22177;DHT22;11254;50.098;8.726;2022-09-12T13:12:08;25.50;60.20
22177;DHT22;11254;50.098;8.726;2022-09-12T13:14:54;25.70;58.50
22177;DHT22;11254;50.098;8.726;2022-09-12T13:17:30;25.80;58.00
22177;DHT22;11254;50.098;8.726;2022-09-12T13:20:12;25.70;56.70
22177;DHT22;11254;50.098;8.726;2022-09-12T13:22:57;25.60;57.50
22177;DHT22;11254;50.098;8.726;2022-09-12T13:25:28;25.50;58.90
22177;DHT22;11254;50.098;8.726;2022-09-12T13:27:58;25.50;57.50
22177;DHT22;11254;50.098;8.726;2022-09-12T13:30:27;25.60;56.60
22177;DHT22;11254;50.098;8.726;2022-09-12T13:33:01;25.60;56.60
22177;DHT22;11254;50.098;8.726;2022-09-12T13:35:42;25.60;57.00
22177;DHT22;11254;50.098;8.726;2022-09-12T13:38:19;25.40;56.40
22177;DHT22;11254;50.098;8.726;2022-09-12T13:41:12;25.10;57.80
22177;DHT22;11254;50.098;8.726;2022-09-12T13:43:43;24.70;60.00
22177;DHT22;11254;50.098;8.726;2022-09-12T13:46:14;24.50;61.40
22177;DHT22;11254;50.098;8.726;2022-09-12T13:48:45;24.30;60.60
22177;DHT22;11254;50.098;8.726;2022-09-12T13:51:22;24.20;60.80
22177;DHT22;11254;50.098;8.726;2022-09-12T13:53:52;24.20;61.60
22177;DHT22;11254;50.098;8.726;2022-09-12T13:56:21;24.10;60.30
22177;DHT22;11254;50.098;8.726;2022-09-12T13:58:51;24.00;59.70
22177;DHT22;11254;50.098;8.726;2022-09-12T14:01:20;24.10;62.20
22177;DHT22;11254;50.098;8.726;2022-09-12T14:03:50;24.10;60.40
22177;DHT22;11254;50.098;8.726;2022-09-12T14:06:43;24.40;60.60
22177;DHT22;11254;50.098;8.726;2022-09-12T14:09:21;24.60;60.00
22177;DHT22;11254;50.098;8.726;2022-09-12T14:11:51;24.80;60.20
22177;DHT22;11254;50.098;8.726;2022-09-12T14:14:25;24.70;59.70
22177;DHT22;11254;50.098;8.726;2022-09-12T14:16:55;24.70;59.30
22177;DHT22;11254;50.098;8.726;2022-09-12T14:19:24;24.80;59.80
22177;DHT22;11254;50.098;8.726;2022-09-12T14:21:54;24.90;58.20
22177;DHT22;11254;50.098;8.726;2022-09-12T14:24:23;25.00;58.70
22177;DHT22;11254;50.098;8.726;2022-09-12T14:26:53;25.00;58.20
22177;DHT22;11254;50.098;8.726;2022-09-12T14:29:23;25.00;59.50
22177;DHT22;11254;50.098;8.726;2022-09-12T14:32:02;25.00;60.00
22177;DHT22;11254;50.098;8.726;2022-09-12T14:34:31;25.20;59.40
22177;DHT22;11254;50.098;8.726;2022-09-12T14:37:05;25.30;58.70
22177;DHT22;11254;50.098;8.726;2022-09-12T14:39:37;25.20;59.00
22177;DHT22;11254;50.098;8.726;2022-09-12T14:42:11;25.10;59.00
22177;DHT22;11254;50.098;8.726;2022-09-12T14:44:52;25.10;59.00
22177;DHT22;11254;50.098;8.726;2022-09-12T14:47:23;25.00;59.80
22177;DHT22;11254;50.098;8.726;2022-09-12T14:49:52;25.10;61.70
22177;DHT22;11254;50.098;8.726;2022-09-12T14:52:24;25.00;62.30
22177;DHT22;11254;50.098;8.726;2022-09-12T14:54:58;25.00;63.00
22177;DHT22;11254;50.098;8.726;2022-09-12T14:57:35;25.00;63.20
22177;DHT22;11254;50.098;8.726;2022-09-12T15:00:19;24.90;62.20
22177;DHT22;11254;50.098;8.726;2022-09-12T15:02:48;24.90;63.40
22177;DHT22;11254;50.098;8.726;2022-09-12T15:05:22;24.90;63.30
22177;DHT22;11254;50.098;8.726;2022-09-12T15:07:54;24.80;62.80
22177;DHT22;11254;50.098;8.726;2022-09-12T15:10:26;24.80;62.80
22177;DHT22;11254;50.098;8.726;2022-09-12T15:13:16;24.70;61.10
22177;DHT22;11254;50.098;8.726;2022-09-12T15:15:46;24.70;61.90
22177;DHT22;11254;50.098;8.726;2022-09-12T15:18:15;24.70;62.40
22177;DHT22;11254;50.098;8.726;2022-09-12T15:20:45;24.70;64.20
22177;DHT22;11254;50.098;8.726;2022-09-12T15:23:18;24.70;62.70
22177;DHT22;11254;50.098;8.726;2022-09-12T15:25:47;24.60;62.60
22177;DHT22;11254;50.098;8.726;2022-09-12T15:28:18;24.50;62.20
22177;DHT22;11254;50.098;8.726;2022-09-12T15:30:47;24.50;62.40
22177;DHT22;11254;50.098;8.726;2022-09-12T15:33:17;24.30;63.40
22177;DHT22;11254;50.098;8.726;2022-09-12T15:35:46;24.30;65.40
22177;DHT22;11254;50.098;8.726;2022-09-12T15:38:18;24.20;66.00
22177;DHT22;11254;50.098;8.726;2022-09-12T15:40:52;24.10;66.80
22177;DHT22;11254;50.098;8.726;2022-09-12T15:43:21;24.00;67.20
22177;DHT22;11254;50.098;8.726;2022-09-12T15:45:51;23.90;67.30
22177;DHT22;11254;50.098;8.726;2022-09-12T15:48:20;23.90;68.70
22177;DHT22;11254;50.098;8.726;2022-09-12T15:50:48;23.90;69.00
22177;DHT22;11254;50.098;8.726;2022-09-12T15:53:17;23.80;68.60
22177;DHT22;11254;50.098;8.726;2022-09-12T15:55:46;23.70;68.50
22177;DHT22;11254;50.098;8.726;2022-09-12T15:58:14;23.70;69.70
22177;DHT22;11254;50.098;8.726;2022-09-12T16:00:42;23.70;69.30
22177;DHT22;11254;50.098;8.726;2022-09-12T16:03:19;23.70;68.70
22177;DHT22;11254;50.098;8.726;2022-09-12T16:05:47;23.60;69.80
22177;DHT22;11254;50.098;8.726;2022-09-12T16:08:15;23.60;69.10
22177;DHT22;11254;50.098;8.726;2022-09-12T16:10:46;23.60;69.60
22177;DHT22;11254;50.098;8.726;2022-09-12T16:13:16;23.50;69.70
22177;DHT22;11254;50.098;8.726;2022-09-12T16:15:44;23.50;71.20
22177;DHT22;11254;50.098;8.726;2022-09-12T16:18:12;23.40;72.20
22177;DHT22;11254;50.098;8.726;2022-09-12T16:20:40;23.40;72.60
22177;DHT22;11254;50.098;8.726;2022-09-12T16:23:09;23.40;71.90
22177;DHT22;11254;50.098;8.726;2022-09-12T16:25:38;23.30;71.90
22177;DHT22;11254;50.098;8.726;2022-09-12T16:28:08;23.30;72.10
22177;DHT22;11254;50.098;8.726;2022-09-12T16:30:36;23.30;73.90
22177;DHT22;11254;50.098;8.726;2022-09-12T16:33:04;23.20;74.50